Time;durP1;ratioP1;P1;durP2;ratioP2;P2;SDS_P1;SDS_P2;PMS_P1;PMS_P2;Temp;Humidity;BMP_temperature;BMP_pressure;BME280_temperature;BME280_humidity;BME280_pressure;Samples;Min_cycle;Max_cycle;Signal;HPM_P1;HPM_P2
2023/07/11 00:00:30;;;;;;;5.13;3.60;;;;;;;;;;5094237;28;20055;-62
2023/07/11 00:02:58;;;;;;;5.50;3.83;;;;;;;;;;5093678;28;20048;-62
2023/07/11 00:05:25;;;;;;;5.40;3.83;;;;;;;;;;5093751;28;20056;-62
2023/07/11 00:07:52;;;;;;;5.97;4.00;;;;;;;;;;5093626;28;20048;-62
2023/07/11 00:10:19;;;;;;;7.28;4.47;;;;;;;;;;5094007;28;20074;-62
2023/07/11 00:12:46;;;;;;;6.22;3.80;;;;;;;;;;5100372;28;20051;-62
2023/07/11 00:15:14;;;;;;;6.93;4.25;;;;;;;;;;5114080;28;20467;-61
2023/07/11 00:17:41;;;;;;;5.30;3.88;;;;;;;;;;5114316;28;20075;-62
2023/07/11 00:20:11;;;;;;;7.10;4.32;;;;;;;;;;5114363;28;20482;-62
2023/07/11 00:22:38;;;;;;;5.82;4.10;;;;;;;;;;5113752;28;20132;-62
2023/07/11 00:25:05;;;;;;;6.32;4.05;;;;;;;;;;5104832;28;20409;-62
2023/07/11 00:27:32;;;;;;;9.68;4.32;;;;;;;;;;5090641;28;20047;-62
2023/07/11 00:29:59;;;;;;;6.18;4.30;;;;;;;;;;5093661;28;20056;-62
2023/07/11 00:32:26;;;;;;;9.60;4.18;;;;;;;;;;5093898;28;20052;-61
2023/07/11 00:34:53;;;;;;;5.93;4.53;;;;;;;;;;5093637;28;20385;-62
2023/07/11 00:37:21;;;;;;;7.68;4.65;;;;;;;;;;5095172;28;20048;-62
2023/07/11 00:39:48;;;;;;;8.10;4.80;;;;;;;;;;5113734;28;20054;-62
2023/07/11 00:42:14;;;;;;;7.90;4.47;;;;;;;;;;5105827;28;20473;-62
2023/07/11 00:44:49;;;;;;;7.28;4.60;;;;;;;;;;5092828;28;20055;-62
2023/07/11 00:47:16;;;;;;;7.75;4.30;;;;;;;;;;5093173;28;20040;-62
2023/07/11 00:49:43;;;;;;;6.25;5.00;;;;;;;;;;5092977;28;20508;-62
2023/07/11 00:52:10;;;;;;;8.25;4.88;;;;;;;;;;5092968;28;20056;-61
2023/07/11 00:54:38;;;;;;;7.35;4.78;;;;;;;;;;5100394;28;20044;-62
2023/07/11 00:57:08;;;;;;;5.97;4.53;;;;;;;;;;5074048;28;20056;-61
2023/07/11 00:59:35;;;;;;;7.20;4.63;;;;;;;;;;5079539;28;20044;-61
2023/07/11 01:02:04;;;;;;;7.07;4.65;;;;;;;;;;5092970;28;20495;-61
2023/07/11 01:04:31;;;;;;;5.33;4.10;;;;;;;;;;5093154;28;20052;-62
2023/07/11 01:06:58;;;;;;;6.47;4.10;;;;;;;;;;5092562;28;20489;-62
2023/07/11 01:09:24;;;;;;;6.45;4.50;;;;;;;;;;5092518;28;20075;-61
2023/07/11 01:11:54;;;;;;;6.82;5.13;;;;;;;;;;5092999;28;20055;-62
2023/07/11 01:14:22;;;;;;;7.72;4.93;;;;;;;;;;5102317;28;20052;-62
2023/07/11 01:16:49;;;;;;;6.65;5.00;;;;;;;;;;5111938;28;20062;-61
2023/07/11 01:19:16;;;;;;;8.32;5.30;;;;;;;;;;5113127;28;20052;-62
2023/07/11 01:21:44;;;;;;;6.03;5.32;;;;;;;;;;5113411;28;20062;-62
2023/07/11 01:24:11;;;;;;;8.32;4.82;;;;;;;;;;5110929;28;20048;-62
2023/07/11 01:26:38;;;;;;;6.30;5.05;;;;;;;;;;5112594;28;20058;-62
2023/07/11 01:29:05;;;;;;;7.35;4.45;;;;;;;;;;5095419;28;20503;-62
2023/07/11 01:31:33;;;;;;;7.50;4.72;;;;;;;;;;5092513;28;20059;-62
2023/07/11 01:34:00;;;;;;;6.88;5.38;;;;;;;;;;5091227;28;20054;-61
2023/07/11 01:36:27;;;;;;;7.65;5.55;;;;;;;;;;5091764;28;20052;-62
2023/07/11 01:38:56;;;;;;;7.30;4.78;;;;;;;;;;5092534;28;20056;-62
2023/07/11 01:41:23;;;;;;;5.28;4.68;;;;;;;;;;5092820;28;20063;-62
2023/07/11 01:43:50;;;;;;;6.30;4.93;;;;;;;;;;5098892;28;20043;-62
2023/07/11 01:46:17;;;;;;;7.68;5.20;;;;;;;;;;5107201;28;20059;-62
2023/07/11 01:48:44;;;;;;;7.03;4.70;;;;;;;;;;5092356;28;20052;-62
2023/07/11 01:51:11;;;;;;;6.55;4.95;;;;;;;;;;5092201;28;20063;-62
2023/07/11 01:53:37;;;;;;;9.25;5.40;;;;;;;;;;5092622;28;20051;-62
2023/07/11 01:56:06;;;;;;;7.95;5.53;;;;;;;;;;5105932;28;20471;-62
2023/07/11 01:58:33;;;;;;;8.02;5.38;;;;;;;;;;5099622;28;20429;-62
2023/07/11 02:01:00;;;;;;;7.43;5.22;;;;;;;;;;5092547;28;20063;-62
2023/07/11 02:03:27;;;;;;;9.82;5.57;;;;;;;;;;5091954;28;20060;-62
2023/07/11 02:05:54;;;;;;;7.30;5.75;;;;;;;;;;5091828;28;20055;-62
2023/07/11 02:08:21;;;;;;;7.40;5.10;;;;;;;;;;5092137;28;20055;-62
2023/07/11 02:10:47;;;;;;;7.93;4.75;;;;;;;;;;5092484;28;20056;-62
2023/07/11 02:13:16;;;;;;;6.97;4.55;;;;;;;;;;5090747;28;20059;-62
2023/07/11 02:15:42;;;;;;;6.75;5.30;;;;;;;;;;5112786;28;20047;-61
2023/07/11 02:18:10;;;;;;;9.68;5.18;;;;;;;;;;5112164;28;20492;-62
2023/07/11 02:20:39;;;;;;;8.20;4.90;;;;;;;;;;5112455;28;20051;-62
2023/07/11 02:23:06;;;;;;;9.05;5.43;;;;;;;;;;5112362;28;20051;-62
2023/07/11 02:25:33;;;;;;;7.00;4.90;;;;;;;;;;5112230;28;20055;-62
2023/07/11 02:27:59;;;;;;;5.78;4.63;;;;;;;;;;5104702;28;20044;-62
2023/07/11 02:30:28;;;;;;;6.88;5.68;;;;;;;;;;5091957;28;20044;-62
2023/07/11 02:32:54;;;;;;;5.70;5.13;;;;;;;;;;5092088;28;20412;-62
2023/07/11 02:35:21;;;;;;;10.07;6.38;;;;;;;;;;5091873;28;20052;-62
2023/07/11 02:37:48;;;;;;;9.05;6.10;;;;;;;;;;5110783;28;20051;-61
2023/07/11 02:40:15;;;;;;;7.00;5.28;;;;;;;;;;5112419;28;20055;-62
2023/07/11 02:42:42;;;;;;;10.13;6.18;;;;;;;;;;5108277;28;20079;-62
2023/07/11 02:45:09;;;;;;;9.70;5.50;;;;;;;;;;5092617;28;20047;-61
2023/07/11 02:47:38;;;;;;;8.93;4.80;;;;;;;;;;5095288;28;20048;-61
2023/07/11 02:50:05;;;;;;;8.48;5.70;;;;;;;;;;5095517;28;20048;-62
2023/07/11 02:52:33;;;;;;;7.07;5.18;;;;;;;;;;5095026;28;20052;-62
2023/07/11 02:55:00;;;;;;;10.63;5.93;;;;;;;;;;5095468;28;20397;-62
2023/07/11 02:57:27;;;;;;;9.75;6.07;;;;;;;;;;5093647;28;20066;-62
2023/07/11 02:59:54;;;;;;;6.00;5.05;;;;;;;;;;5094764;28;20052;-62
2023/07/11 03:02:20;;;;;;;7.78;5.30;;;;;;;;;;5095071;28;20067;-62
2023/07/11 03:04:49;;;;;;;6.55;5.60;;;;;;;;;;5095207;28;20062;-62
2023/07/11 03:07:15;;;;;;;7.97;5.53;;;;;;;;;;5095012;28;20078;-62
2023/07/11 03:09:42;;;;;;;9.73;5.53;;;;;;;;;;5094793;28;20409;-62
2023/07/11 03:12:10;;;;;;;9.25;5.43;;;;;;;;;;5093682;28;20059;-62
2023/07/11 03:14:37;;;;;;;7.07;5.40;;;;;;;;;;5111112;28;20052;-62
2023/07/11 03:17:04;;;;;;;7.18;6.43;;;;;;;;;;5115441;28;20047;-62
2023/07/11 03:19:30;;;;;;;6.75;6.15;;;;;;;;;;5114829;28;20051;-62
2023/07/11 03:21:59;;;;;;;9.93;7.00;;;;;;;;;;5114995;28;20385;-62
2023/07/11 03:24:25;;;;;;;7.00;5.85;;;;;;;;;;5115118;28;20058;-63
2023/07/11 03:26:52;;;;;;;8.20;5.50;;;;;;;;;;5112349;28;20052;-62
2023/07/11 03:29:19;;;;;;;8.60;6.25;;;;;;;;;;5094212;28;20047;-62
2023/07/11 03:31:46;;;;;;;10.23;5.60;;;;;;;;;;5094925;28;20075;-62
2023/07/11 03:34:12;;;;;;;10.32;5.45;;;;;;;;;;5094429;28;20074;-62
2023/07/11 03:36:40;;;;;;;8.05;5.72;;;;;;;;;;5095063;28;20059;-63
2023/07/11 03:39:08;;;;;;;7.80;5.50;;;;;;;;;;5094497;28;20052;-62
2023/07/11 03:41:36;;;;;;;9.10;5.80;;;;;;;;;;5093535;28;20066;-62
2023/07/11 03:44:02;;;;;;;7.72;6.93;;;;;;;;;;5101941;28;20047;-62
2023/07/11 03:46:29;;;;;;;9.05;7.72;;;;;;;;;;5094645;28;20368;-62
2023/07/11 03:48:58;;;;;;;9.82;8.75;;;;;;;;;;5093911;28;20075;-62
2023/07/11 03:51:25;;;;;;;9.88;7.88;;;;;;;;;;5094191;28;20405;-63
2023/07/11 03:53:52;;;;;;;9.00;8.15;;;;;;;;;;5094343;28;20484;-62
2023/07/11 03:56:20;;;;;;;8.60;6.75;;;;;;;;;;5092198;28;20055;-62
2023/07/11 03:58:47;;;;;;;9.82;7.70;;;;;;;;;;5073299;28;20052;-64
2023/07/11 04:01:14;;;;;;;11.43;7.00;;;;;;;;;;5074118;28;20049;-62
2023/07/11 04:03:43;;;;;;;8.80;7.32;;;;;;;;;;5072863;28;20060;-62
2023/07/11 04:06:09;;;;;;;11.80;6.97;;;;;;;;;;5091513;28;20048;-62
2023/07/11 04:08:36;;;;;;;8.23;6.65;;;;;;;;;;5094092;28;20044;-62
2023/07/11 04:11:03;;;;;;;7.85;6.93;;;;;;;;;;5093907;28;20066;-62
2023/07/11 04:13:31;;;;;;;7.85;6.35;;;;;;;;;;5075052;28;20049;-62
2023/07/11 04:15:58;;;;;;;9.25;6.22;;;;;;;;;;5053748;28;20049;-62
2023/07/11 04:18:25;;;;;;;8.32;6.57;;;;;;;;;;5053285;28;20501;-62
2023/07/11 04:20:52;;;;;;;9.63;6.80;;;;;;;;;;5053763;28;20370;-62
2023/07/11 04:23:19;;;;;;;8.48;6.72;;;;;;;;;;5072954;28;20063;-62
2023/07/11 04:25:45;;;;;;;10.57;7.60;;;;;;;;;;5093828;28;20051;-62
2023/07/11 04:28:13;;;;;;;8.05;6.38;;;;;;;;;;5079254;28;20409;-62
2023/07/11 04:30:41;;;;;;;8.80;6.00;;;;;;;;;;5077058;28;20052;-62
2023/07/11 04:33:07;;;;;;;11.57;6.50;;;;;;;;;;5092622;28;20056;-62
2023/07/11 04:35:34;;;;;;;6.95;6.20;;;;;;;;;;5093785;28;20055;-62
2023/07/11 04:38:01;;;;;;;6.40;5.65;;;;;;;;;;5088365;28;20517;-62
2023/07/11 04:40:28;;;;;;;11.00;6.93;;;;;;;;;;5086797;28;20373;-62
2023/07/11 04:42:58;;;;;;;6.85;5.93;;;;;;;;;;5086804;28;20071;-62
2023/07/11 04:45:24;;;;;;;9.88;6.05;;;;;;;;;;5091853;28;20396;-62
2023/07/11 04:47:53;;;;;;;13.32;6.72;;;;;;;;;;5093536;28;20060;-62
2023/07/11 04:50:20;;;;;;;7.80;6.30;;;;;;;;;;5090549;28;20489;-62
2023/07/11 04:52:47;;;;;;;7.03;5.78;;;;;;;;;;5091420;28;20056;-62
2023/07/11 04:55:14;;;;;;;8.73;6.45;;;;;;;;;;5081852;28;20072;-62
2023/07/11 04:57:40;;;;;;;7.20;6.25;;;;;;;;;;5093824;28;20056;-62
2023/07/11 05:00:08;;;;;;;9.43;6.43;;;;;;;;;;5090104;28;20044;-62
2023/07/11 05:02:35;;;;;;;10.23;6.63;;;;;;;;;;5080169;28;20052;-62
2023/07/11 05:05:03;;;;;;;9.43;5.78;;;;;;;;;;5092987;28;20056;-62
2023/07/11 05:07:30;;;;;;;13.55;5.70;;;;;;;;;;5092339;28;20052;-62
2023/07/11 05:09:57;;;;;;;8.15;5.90;;;;;;;;;;5095657;28;20052;-62
2023/07/11 05:12:23;;;;;;;11.40;6.22;;;;;;;;;;5077562;28;20055;-62
2023/07/11 05:14:50;;;;;;;11.73;5.70;;;;;;;;;;5098657;28;20054;-62
2023/07/11 05:17:17;;;;;;;7.05;5.75;;;;;;;;;;5083812;28;20052;-62
2023/07/11 05:19:44;;;;;;;8.70;5.10;;;;;;;;;;5092635;28;20052;-62
2023/07/11 05:22:12;;;;;;;8.00;5.80;;;;;;;;;;5092782;28;20060;-62
2023/07/11 05:24:39;;;;;;;11.73;8.00;;;;;;;;;;5091072;28;20075;-62
2023/07/11 05:27:06;;;;;;;9.90;6.97;;;;;;;;;;5090285;28;20051;-62
2023/07/11 05:29:33;;;;;;;8.30;5.50;;;;;;;;;;5103389;28;20047;-62
2023/07/11 05:32:00;;;;;;;6.88;5.00;;;;;;;;;;5111950;28;20129;-62
2023/07/11 05:34:27;;;;;;;8.93;5.88;;;;;;;;;;5082232;28;20085;-63
2023/07/11 05:36:54;;;;;;;12.38;6.05;;;;;;;;;;5083615;28;20495;-62
2023/07/11 05:39:22;;;;;;;10.20;5.40;;;;;;;;;;5092324;28;20048;-62
2023/07/11 05:41:50;;;;;;;11.55;5.45;;;;;;;;;;5091530;28;20078;-62
2023/07/11 05:44:17;;;;;;;6.85;5.50;;;;;;;;;;5099527;28;20052;-63
2023/07/11 05:46:44;;;;;;;9.13;5.13;;;;;;;;;;5110915;28;20055;-63
2023/07/11 05:49:11;;;;;;;7.32;4.70;;;;;;;;;;5109412;28;20504;-63
2023/07/11 05:51:38;;;;;;;10.35;5.30;;;;;;;;;;5112280;28;20048;-63
2023/07/11 05:54:04;;;;;;;9.07;4.90;;;;;;;;;;5112803;28;20396;-63
2023/07/11 05:56:33;;;;;;;8.90;4.95;;;;;;;;;;5105459;28;20043;-62
2023/07/11 05:59:00;;;;;;;8.48;4.75;;;;;;;;;;5105800;28;20047;-63
2023/07/11 06:01:28;;;;;;;7.40;4.45;;;;;;;;;;5109505;28;20074;-63
2023/07/11 06:04:03;;;;;;;11.25;4.88;;;;;;;;;;5112413;28;20051;-63
2023/07/11 06:06:30;;;;;;;12.20;5.57;;;;;;;;;;5092882;28;20503;-62
2023/07/11 06:08:57;;;;;;;8.40;4.60;;;;;;;;;;5087625;28;20048;-61
2023/07/11 06:11:23;;;;;;;9.88;4.43;;;;;;;;;;5085439;28;20056;-62
2023/07/11 06:13:51;;;;;;;7.60;4.10;;;;;;;;;;5073954;28;20052;-62
2023/07/11 06:16:19;;;;;;;6.45;4.53;;;;;;;;;;5082485;28;20499;-62
2023/07/11 06:18:47;;;;;;;7.47;4.40;;;;;;;;;;5091399;28;20048;-62
2023/07/11 06:21:13;;;;;;;9.23;4.22;;;;;;;;;;5109625;28;20051;-62
2023/07/11 06:23:40;;;;;;;7.20;3.65;;;;;;;;;;5116464;28;20058;-63
2023/07/11 06:26:08;;;;;;;9.60;3.92;;;;;;;;;;5116696;28;20051;-62
2023/07/11 06:28:35;;;;;;;8.52;4.40;;;;;;;;;;5111560;28;20066;-63
2023/07/11 06:31:03;;;;;;;8.13;3.95;;;;;;;;;;5116581;28;20476;-63
2023/07/11 06:33:30;;;;;;;6.93;3.60;;;;;;;;;;5116328;28;20051;-63
2023/07/11 06:35:57;;;;;;;7.18;3.60;;;;;;;;;;5116468;28;20052;-63
2023/07/11 06:38:24;;;;;;;6.10;3.50;;;;;;;;;;5110265;28;20058;-63
2023/07/11 06:40:51;;;;;;;5.20;3.70;;;;;;;;;;5116346;28;20058;-63
2023/07/11 06:43:18;;;;;;;4.35;3.42;;;;;;;;;;5112290;28;20063;-63
2023/07/11 06:45:45;;;;;;;5.43;3.20;;;;;;;;;;5075277;28;20057;-63
2023/07/11 06:48:14;;;;;;;4.47;3.00;;;;;;;;;;5109325;28;20078;-63
2023/07/11 06:50:40;;;;;;;5.50;3.08;;;;;;;;;;5115762;28;20048;-63
2023/07/11 06:53:07;;;;;;;5.85;2.65;;;;;;;;;;5104496;28;20067;-63
2023/07/11 06:55:34;;;;;;;3.72;2.50;;;;;;;;;;5116110;28;20481;-64
2023/07/11 06:58:01;;;;;;;4.28;2.33;;;;;;;;;;5114854;28;20349;-63
2023/07/11 07:00:27;;;;;;;4.18;2.60;;;;;;;;;;5109364;28;20043;-63
2023/07/11 07:02:54;;;;;;;3.33;2.53;;;;;;;;;;5107556;28;20063;-63
2023/07/11 07:05:22;;;;;;;3.03;2.40;;;;;;;;;;5115776;28;20052;-64
2023/07/11 07:07:49;;;;;;;3.88;2.60;;;;;;;;;;5115912;28;20523;-64
2023/07/11 07:10:16;;;;;;;3.15;2.03;;;;;;;;;;5115757;28;20499;-63
2023/07/11 07:12:43;;;;;;;4.03;2.60;;;;;;;;;;5115459;28;20058;-64
2023/07/11 07:15:10;;;;;;;4.00;2.40;;;;;;;;;;5074702;28;20060;-64
2023/07/11 07:17:37;;;;;;;4.75;2.15;;;;;;;;;;5074835;28;20056;-64
2023/07/11 07:20:04;;;;;;;5.55;2.25;;;;;;;;;;5074651;28;20055;-64
2023/07/11 07:22:32;;;;;;;4.25;1.95;;;;;;;;;;5098024;28;20064;-64
2023/07/11 07:24:59;;;;;;;4.05;2.33;;;;;;;;;;5115716;28;20063;-63
2023/07/11 07:27:26;;;;;;;3.58;2.20;;;;;;;;;;5115552;28;20062;-64
2023/07/11 07:29:53;;;;;;;4.10;2.50;;;;;;;;;;5110880;28;20047;-64
2023/07/11 07:32:19;;;;;;;4.95;2.45;;;;;;;;;;5114088;28;20066;-65
2023/07/11 07:34:47;;;;;;;2.75;1.98;;;;;;;;;;5115141;28;20058;-64
2023/07/11 07:37:14;;;;;;;5.40;2.42;;;;;;;;;;5114988;28;20054;-64
2023/07/11 07:39:42;;;;;;;4.13;2.13;;;;;;;;;;5115048;28;20052;-63
2023/07/11 07:42:09;;;;;;;5.22;2.10;;;;;;;;;;5115285;28;20063;-64
2023/07/11 07:44:36;;;;;;;2.83;2.25;;;;;;;;;;5110851;28;20056;-64
2023/07/11 07:47:03;;;;;;;3.45;2.25;;;;;;;;;;5114937;28;20063;-63
2023/07/11 07:49:29;;;;;;;3.80;2.50;;;;;;;;;;5114551;28;20075;-63
2023/07/11 07:51:56;;;;;;;3.03;2.00;;;;;;;;;;5114355;28;20055;-63
2023/07/11 07:54:23;;;;;;;3.40;2.00;;;;;;;;;;5114262;28;20052;-64
2023/07/11 07:56:51;;;;;;;3.92;2.40;;;;;;;;;;5114570;28;20062;-64
2023/07/11 07:59:18;;;;;;;4.83;2.40;;;;;;;;;;5099302;28;20401;-64
2023/07/11 08:01:45;;;;;;;3.53;2.40;;;;;;;;;;5113749;28;20561;-64
2023/07/11 08:04:11;;;;;;;5.32;2.53;;;;;;;;;;5114688;28;20480;-64
2023/07/11 08:06:38;;;;;;;3.45;2.10;;;;;;;;;;5114838;28;20396;-64
2023/07/11 08:09:05;;;;;;;5.07;2.22;;;;;;;;;;5109060;28;20051;-64
2023/07/11 08:11:32;;;;;;;3.55;2.25;;;;;;;;;;5114833;28;20051;-64
2023/07/11 08:14:16;;;;;;;3.08;2.05;;;;;;;;;;5110653;28;20062;-64
2023/07/11 08:16:45;;;;;;;4.35;2.72;;;;;;;;;;5113974;28;20047;-65
2023/07/11 08:19:11;;;;;;;4.82;2.30;;;;;;;;;;5114400;28;20051;-64
2023/07/11 08:21:38;;;;;;;3.70;2.28;;;;;;;;;;5109266;28;20122;-65
2023/07/11 08:24:06;;;;;;;4.10;2.10;;;;;;;;;;5114181;28;20051;-64
2023/07/11 08:26:33;;;;;;;3.80;2.03;;;;;;;;;;5114566;28;20047;-64
2023/07/11 08:29:00;;;;;;;3.85;2.13;;;;;;;;;;5105820;28;20051;-65
2023/07/11 08:31:27;;;;;;;6.47;2.10;;;;;;;;;;5095054;28;20052;-64
2023/07/11 08:33:55;;;;;;;2.95;1.95;;;;;;;;;;5094078;28;20059;-64
2023/07/11 08:36:22;;;;;;;4.60;2.20;;;;;;;;;;5091981;28;20481;-64
2023/07/11 08:38:49;;;;;;;5.93;2.38;;;;;;;;;;5112076;28;20051;-65
2023/07/11 08:41:23;;;;;;;2.90;1.95;;;;;;;;;;5114164;28;20404;-64
2023/07/11 08:43:51;;;;;;;6.32;2.33;;;;;;;;;;5107904;28;20048;-65
2023/07/11 08:46:19;;;;;;;4.35;2.28;;;;;;;;;;5112691;28;20070;-64
2023/07/11 08:48:48;;;;;;;3.38;2.10;;;;;;;;;;5113923;28;20492;-65
2023/07/11 08:51:21;;;;;;;4.43;2.15;;;;;;;;;;5113405;28;20055;-64
2023/07/11 08:53:49;;;;;;;4.22;2.20;;;;;;;;;;5113413;28;20059;-65
2023/07/11 08:56:20;;;;;;;5.00;2.15;;;;;;;;;;5107658;28;20476;-65
2023/07/11 08:58:47;;;;;;;3.60;1.95;;;;;;;;;;5110748;28;20412;-65
2023/07/11 09:01:30;;;;;;;3.28;1.88;;;;;;;;;;5111972;28;20055;-65
2023/07/11 09:03:58;;;;;;;3.03;2.20;;;;;;;;;;5113523;28;20043;-65
2023/07/11 09:06:25;;;;;;;;;;;;;;;;;;5110145;28;21956;-65
2023/07/11 09:08:54;;;;;;;3.70;2.05;;;;;;;;;;5094965;28;19920;-65
2023/07/11 09:11:23;;;;;;;6.32;2.00;;;;;;;;;;5113527;28;20055;-64
2023/07/11 09:13:55;;;;;;;4.88;2.03;;;;;;;;;;5113572;28;20054;-65
2023/07/11 09:16:32;;;;;;;5.85;2.55;;;;;;;;;;5110646;28;20048;-66
2023/07/11 09:19:03;;;;;;;5.85;1.90;;;;;;;;;;5113302;28;20055;-65
2023/07/11 09:21:35;;;;;;;3.05;1.75;;;;;;;;;;5113766;28;20043;-64
2023/07/11 09:24:07;;;;;;;5.30;2.33;;;;;;;;;;5113518;28;20058;-64
2023/07/11 09:26:36;;;;;;;3.80;2.00;;;;;;;;;;5111428;28;20055;-66
2023/07/11 09:29:06;;;;;;;3.58;2.20;;;;;;;;;;5113023;28;20055;-65
2023/07/11 09:31:38;;;;;;;4.45;1.83;;;;;;;;;;5106893;28;20047;-65
2023/07/11 09:34:10;;;;;;;3.72;1.63;;;;;;;;;;5112322;28;20063;-66
2023/07/11 09:36:39;;;;;;;4.22;1.88;;;;;;;;;;5110500;28;20486;-65
2023/07/11 09:39:14;;;;;;;4.35;2.20;;;;;;;;;;5112345;28;20055;-65
2023/07/11 09:41:44;;;;;;;3.90;1.70;;;;;;;;;;5113483;28;20074;-65
2023/07/11 09:44:11;;;;;;;3.13;1.80;;;;;;;;;;5112860;28;20051;-64
2023/07/11 09:46:38;;;;;;;4.65;1.80;;;;;;;;;;5108309;28;20055;-65
2023/07/11 09:49:07;;;;;;;4.80;2.22;;;;;;;;;;5113126;28;20058;-65
2023/07/11 09:51:36;;;;;;;5.20;2.10;;;;;;;;;;5112683;28;20048;-65
2023/07/11 09:54:04;;;;;;;3.67;2.00;;;;;;;;;;5112965;28;20051;-65
2023/07/11 09:56:43;;;;;;;3.63;1.77;;;;;;;;;;5099623;28;20052;-65
2023/07/11 09:59:12;;;;;;;3.13;2.10;;;;;;;;;;5095054;28;20048;-65
2023/07/11 10:01:39;;;;;;;3.20;1.83;;;;;;;;;;5111405;28;20048;-65
2023/07/11 10:04:06;;;;;;;6.45;2.22;;;;;;;;;;5114463;28;20067;-65
2023/07/11 10:06:37;;;;;;;3.05;1.83;;;;;;;;;;5117193;28;20047;-66
2023/07/11 10:09:14;;;;;;;6.22;2.60;;;;;;;;;;5117602;28;20508;-66
2023/07/11 10:11:42;;;;;;;4.80;2.22;;;;;;;;;;5117516;28;20052;-65
2023/07/11 10:14:16;;;;;;;4.03;1.92;;;;;;;;;;5112776;28;20047;-66
2023/07/11 10:16:43;;;;;;;3.10;1.95;;;;;;;;;;5110168;28;20054;-66
2023/07/11 10:19:13;;;;;;;4.25;2.00;;;;;;;;;;5113928;28;20051;-66
2023/07/11 10:21:43;;;;;;;3.80;1.90;;;;;;;;;;5117180;28;20047;-67
2023/07/11 10:24:15;;;;;;;4.00;2.28;;;;;;;;;;5116800;28;20043;-66
2023/07/11 10:26:44;;;;;;;4.03;2.20;;;;;;;;;;5117110;28;20047;-66
2023/07/11 10:29:14;;;;;;;4.15;2.20;;;;;;;;;;5117349;28;20398;-66
2023/07/11 10:31:41;;;;;;;2.65;1.90;;;;;;;;;;5110752;28;20055;-66
2023/07/11 10:34:19;;;;;;;8.65;2.60;;;;;;;;;;5113754;28;20404;-67
2023/07/11 10:36:46;;;;;;;3.38;2.00;;;;;;;;;;5116704;28;20062;-66
2023/07/11 10:39:16;;;;;;;5.55;2.05;;;;;;;;;;5116592;28;20385;-66
2023/07/11 10:41:48;;;;;;;5.20;2.25;;;;;;;;;;5116742;28;20048;-66
2023/07/11 10:44:17;;;;;;;5.53;2.70;;;;;;;;;;5116615;28;20059;-66
2023/07/11 10:46:46;;;;;;;5.30;2.20;;;;;;;;;;5110459;28;20062;-66
2023/07/11 10:49:16;;;;;;;4.85;2.20;;;;;;;;;;5114245;28;20051;-67
2023/07/11 10:51:47;;;;;;;4.05;1.95;;;;;;;;;;5116120;28;20056;-66
2023/07/11 10:54:18;;;;;;;4.03;2.28;;;;;;;;;;5116017;28;20054;-67
2023/07/11 10:56:49;;;;;;;5.25;2.40;;;;;;;;;;5116469;28;20378;-66
2023/07/11 10:59:18;;;;;;;3.28;2.10;;;;;;;;;;5115906;28;20051;-66
2023/07/11 11:01:50;;;;;;;4.57;2.47;;;;;;;;;;5111951;28;20051;-67
2023/07/11 11:04:27;;;;;;;6.50;2.80;;;;;;;;;;5116131;28;20079;-66
2023/07/11 11:06:56;;;;;;;3.22;1.98;;;;;;;;;;5106722;28;20056;-64
2023/07/11 11:09:27;;;;;;;3.92;2.80;;;;;;;;;;5116028;28;20063;-64
2023/07/11 11:12:00;;;;;;;3.75;2.22;;;;;;;;;;5115798;28;20476;-66
2023/07/11 11:14:30;;;;;;;4.65;2.20;;;;;;;;;;5109075;28;20055;-65
2023/07/11 11:17:03;;;;;;;4.13;2.10;;;;;;;;;;5111786;28;20063;-64
2023/07/11 11:19:38;;;;;;;4.30;2.35;;;;;;;;;;5115035;28;20388;-64
2023/07/11 11:22:06;;;;;;;4.13;2.25;;;;;;;;;;5112592;28;20479;-67
2023/07/11 11:24:43;;;;;;;5.93;2.47;;;;;;;;;;5115127;28;20048;-66
2023/07/11 11:27:17;;;;;;;6.43;2.60;;;;;;;;;;5115500;28;20051;-67
2023/07/11 11:29:49;;;;;;;3.90;2.40;;;;;;;;;;5115451;28;20051;-65
2023/07/11 11:32:20;;;;;;;4.25;2.53;;;;;;;;;;5110478;28;20054;-66
2023/07/11 11:34:53;;;;;;;2.92;2.53;;;;;;;;;;5115397;28;20051;-66
2023/07/11 11:37:26;;;;;;;4.50;2.70;;;;;;;;;;5115318;28;20404;-66
2023/07/11 11:39:59;;;;;;;4.65;2.70;;;;;;;;;;5115152;28;20047;-66
2023/07/11 11:42:30;;;;;;;3.17;2.50;;;;;;;;;;5115012;28;20408;-66
2023/07/11 11:44:58;;;;;;;4.93;2.78;;;;;;;;;;5111156;28;20054;-66
2023/07/11 11:47:26;;;;;;;4.18;2.50;;;;;;;;;;5102662;28;20048;-66
2023/07/11 11:49:54;;;;;;;4.25;2.60;;;;;;;;;;5101743;28;20063;-67
2023/07/11 11:52:21;;;;;;;6.07;2.65;;;;;;;;;;5114215;28;20074;-67
2023/07/11 11:54:49;;;;;;;3.88;2.60;;;;;;;;;;5115055;28;20071;-66
2023/07/11 11:57:20;;;;;;;4.68;2.88;;;;;;;;;;5114606;28;20412;-67
2023/07/11 11:59:48;;;;;;;5.22;2.90;;;;;;;;;;5114929;28;20415;-66
2023/07/11 12:02:17;;;;;;;3.80;2.90;;;;;;;;;;5110104;28;20047;-67
2023/07/11 12:04:59;;;;;;;6.10;2.90;;;;;;;;;;5114726;28;20412;-66
2023/07/11 12:07:28;;;;;;;5.72;2.95;;;;;;;;;;5114525;28;20059;-67
2023/07/11 12:10:12;;;;;;;3.92;2.42;;;;;;;;;;5114383;28;20051;-66
2023/07/11 12:12:53;;;;;;;4.20;2.70;;;;;;;;;;5114190;28;20055;-67
2023/07/11 12:15:24;;;;;;;4.80;2.72;;;;;;;;;;5079274;28;20055;-67
2023/07/11 12:17:50;;;;;;;5.13;2.83;;;;;;;;;;5092174;28;20476;-66
2023/07/11 12:20:21;;;;;;;4.87;2.93;;;;;;;;;;5114495;28;20047;-66
2023/07/11 12:23:06;;;;;;;6.78;2.88;;;;;;;;;;5114523;28;20066;-67
2023/07/11 12:25:32;;;;;;;4.38;2.60;;;;;;;;;;5114475;28;20062;-66
2023/07/11 12:28:01;;;;;;;4.00;2.72;;;;;;;;;;5114171;28;20058;-67
2023/07/11 12:30:48;;;;;;;3.92;3.00;;;;;;;;;;5109755;28;20052;-67
2023/07/11 12:33:24;;;;;;;5.78;3.47;;;;;;;;;;5113753;28;20052;-66
2023/07/11 12:35:57;;;;;;;5.47;2.90;;;;;;;;;;5114157;28;20408;-67
2023/07/11 12:38:29;;;;;;;4.38;3.30;;;;;;;;;;5113741;28;20078;-67
2023/07/11 12:41:05;;;;;;;8.88;3.85;;;;;;;;;;5113924;28;20056;-66
2023/07/11 12:43:33;;;;;;;4.13;2.92;;;;;;;;;;5113804;28;20047;-66
2023/07/11 12:46:01;;;;;;;4.60;3.30;;;;;;;;;;5106092;28;20044;-66
2023/07/11 12:48:31;;;;;;;6.05;3.47;;;;;;;;;;5110670;28;20063;-66
2023/07/11 12:50:59;;;;;;;4.65;3.03;;;;;;;;;;5113323;28;20071;-66
2023/07/11 12:53:25;;;;;;;;;;;;;;;;;;5113689;28;20380;-66
2023/07/11 12:55:53;;;;;;;5.47;3.60;;;;;;;;;;5113625;28;19926;-67
2023/07/11 12:58:20;;;;;;;6.20;3.50;;;;;;;;;;5113509;28;20067;-66
2023/07/11 13:00:47;;;;;;;5.32;3.28;;;;;;;;;;5108072;28;20051;-66
2023/07/11 13:03:21;;;;;;;3.90;3.23;;;;;;;;;;5113213;28;20052;-66
2023/07/11 13:05:51;;;;;;;4.60;3.35;;;;;;;;;;5113690;28;20830;-66
2023/07/11 13:08:18;;;;;;;4.25;3.20;;;;;;;;;;5113349;28;20400;-66
2023/07/11 13:10:48;;;;;;;4.32;3.20;;;;;;;;;;5113077;28;20070;-66
2023/07/11 13:13:15;;;;;;;4.60;3.35;;;;;;;;;;5108408;28;20044;-66
2023/07/11 13:15:42;;;;;;;4.75;3.70;;;;;;;;;;5106986;28;20404;-66
2023/07/11 13:18:25;;;;;;;3.67;3.30;;;;;;;;;;5113361;28;20054;-67
2023/07/11 13:20:54;;;;;;;5.82;4.05;;;;;;;;;;5113493;28;20048;-67
2023/07/11 13:23:21;;;;;;;6.10;4.03;;;;;;;;;;5113028;28;20051;-66
2023/07/11 13:25:47;;;;;;;8.00;3.77;;;;;;;;;;5113445;28;20078;-66
2023/07/11 13:28:15;;;;;;;5.63;3.78;;;;;;;;;;5113584;28;20052;-66
2023/07/11 13:30:42;;;;;;;4.38;3.42;;;;;;;;;;5108989;28;20054;-65
2023/07/11 13:33:13;;;;;;;5.60;3.38;;;;;;;;;;5113336;28;20058;-66
2023/07/11 13:35:49;;;;;;;6.40;4.35;;;;;;;;;;5110369;28;20047;-66
2023/07/11 13:38:17;;;;;;;5.70;4.05;;;;;;;;;;5112815;28;20062;-66
2023/07/11 13:40:44;;;;;;;6.30;4.47;;;;;;;;;;5112007;28;20059;-66
2023/07/11 13:43:20;;;;;;;5.07;4.35;;;;;;;;;;5112900;28;20047;-66
2023/07/11 13:45:47;;;;;;;4.75;4.22;;;;;;;;;;5107239;28;20058;-66
2023/07/11 13:48:16;;;;;;;6.27;4.67;;;;;;;;;;5113054;28;20400;-66
2023/07/11 13:50:45;;;;;;;5.80;4.55;;;;;;;;;;5112838;28;20051;-65
2023/07/11 13:53:14;;;;;;;6.32;4.53;;;;;;;;;;5113051;28;20055;-66
2023/07/11 13:55:47;;;;;;;5.50;4.20;;;;;;;;;;5107881;28;20137;-66
2023/07/11 13:58:15;;;;;;;5.30;4.15;;;;;;;;;;5109939;28;20138;-66
2023/07/11 14:00:44;;;;;;;4.53;4.05;;;;;;;;;;5102325;28;20048;-66
2023/07/11 14:03:15;;;;;;;4.97;4.30;;;;;;;;;;5109932;28;20051;-66
2023/07/11 14:05:45;;;;;;;6.20;5.03;;;;;;;;;;5112846;28;20400;-65
2023/07/11 14:08:12;;;;;;;6.00;4.82;;;;;;;;;;5112497;28;20488;-66
2023/07/11 14:10:39;;;;;;;5.57;4.13;;;;;;;;;;5112714;28;20063;-66
2023/07/11 14:13:17;;;;;;;6.70;4.28;;;;;;;;;;5108205;28;20114;-66
2023/07/11 14:15:44;;;;;;;5.22;4.55;;;;;;;;;;5097281;28;20052;-66
2023/07/11 14:18:11;;;;;;;5.15;4.63;;;;;;;;;;5112437;28;20412;-66
2023/07/11 14:20:39;;;;;;;5.67;4.67;;;;;;;;;;5109938;28;20044;-66
2023/07/11 14:23:10;;;;;;;6.60;4.43;;;;;;;;;;5107683;28;20055;-67
2023/07/11 14:25:40;;;;;;;5.85;4.80;;;;;;;;;;5112315;28;20392;-66
2023/07/11 14:28:12;;;;;;;5.60;5.00;;;;;;;;;;5106121;28;20052;-66
2023/07/11 14:30:43;;;;;;;5.53;4.75;;;;;;;;;;5106912;28;20051;-66
2023/07/11 14:33:10;;;;;;;5.70;4.13;;;;;;;;;;5111993;28;20056;-66
2023/07/11 14:35:40;;;;;;;6.40;4.43;;;;;;;;;;5112064;28;20055;-66
2023/07/11 14:38:11;;;;;;;7.97;4.82;;;;;;;;;;5111927;28;20112;-66
2023/07/11 14:40:38;;;;;;;5.60;4.57;;;;;;;;;;5112462;28;20063;-66
2023/07/11 14:43:05;;;;;;;6.00;4.30;;;;;;;;;;5113690;28;20048;-66
2023/07/11 14:45:32;;;;;;;5.35;4.85;;;;;;;;;;5112261;28;20431;-66
2023/07/11 14:48:00;;;;;;;7.85;4.60;;;;;;;;;;5116050;28;20511;-66
2023/07/11 14:50:31;;;;;;;5.07;4.22;;;;;;;;;;5113979;28;20051;-65